Time;durP1;ratioP1;P1;durP2;ratioP2;P2;SDS_P1;SDS_P2;PMS_P1;PMS_P2;Temp;Humidity;BMP_temperature;BMP_pressure;BME280_temperature;BME280_humidity;BME280_pressure;Samples;Min_cycle;Max_cycle;Signal;HPM_P1;HPM_P2
2023/12/23 00:02:21;;;;;;;28.92;19.83;;;;;;;2.86;73.10;96750.97;5094596;28;20039;-58
2023/12/23 00:04:46;;;;;;;26.90;18.63;;;;;;;2.87;73.19;96763.22;5093695;28;20028;-61
2023/12/23 00:07:14;;;;;;;25.30;16.77;;;;;;;3.04;72.59;96750.16;5081921;28;20401;-61
2023/12/23 00:09:40;;;;;;;27.80;17.33;;;;;;;2.92;71.71;96734.53;5076878;28;20033;-59
2023/12/23 00:12:08;;;;;;;27.98;18.55;;;;;;;2.85;72.68;96736.09;5087405;28;20020;-60
2023/12/23 00:14:34;;;;;;;27.67;19.17;;;;;;;2.84;73.20;96739.72;5094993;28;20056;-61
2023/12/23 00:17:00;;;;;;;29.67;19.88;;;;;;;2.92;73.35;96729.25;5094831;28;20445;-60
2023/12/23 00:19:25;;;;;;;32.40;19.33;;;;;;;2.95;72.88;96741.31;5092381;28;20124;-56
2023/12/23 00:21:51;;;;;;;28.52;19.73;;;;;;;2.98;72.48;96744.50;5077208;28;20046;-57
2023/12/23 00:24:17;;;;;;;27.52;18.98;;;;;;;2.95;72.36;96742.16;5074545;28;20070;-59
2023/12/23 00:26:42;;;;;;;30.23;20.67;;;;;;;2.94;73.46;96747.59;5077900;28;20040;-58
2023/12/23 00:29:08;;;;;;;30.15;20.40;;;;;;;2.97;73.33;96742.84;5093699;28;20048;-59
2023/12/23 00:31:34;;;;;;;32.92;19.83;;;;;;;2.96;73.04;96737.69;5080599;28;20033;-57
2023/12/23 00:33:59;;;;;;;34.35;22.15;;;;;;;3.05;72.42;96738.59;5060757;28;20103;-57
2023/12/23 00:36:25;;;;;;;31.67;21.20;;;;;;;3.11;71.49;96716.81;5090031;28;20060;-57
2023/12/23 00:38:50;;;;;;;34.22;22.65;;;;;;;3.04;72.51;96715.78;5093858;28;20023;-57
2023/12/23 00:41:16;;;;;;;35.35;21.63;;;;;;;3.11;72.22;96703.59;5092809;28;20125;-60
2023/12/23 00:43:41;;;;;;;31.98;20.83;;;;;;;3.18;71.27;96696.75;5094203;28;20051;-57
2023/12/23 00:46:10;;;;;;;34.00;21.60;;;;;;;3.12;71.85;96692.03;5093981;28;20024;-62
2023/12/23 00:48:35;;;;;;;34.05;21.42;;;;;;;3.08;71.90;96703.91;5093787;28;20035;-62
2023/12/23 00:51:01;;;;;;;34.97;21.33;;;;;;;2.94;72.38;96679.72;5090445;28;20044;-56
2023/12/23 00:53:27;;;;;;;27.48;17.58;;;;;;;3.05;72.00;96691.84;5092258;28;20081;-59
2023/12/23 00:55:53;;;;;;;32.40;19.67;;;;;;;3.03;71.48;96691.19;5075943;28;20094;-55
2023/12/23 00:58:18;;;;;;;34.50;21.00;;;;;;;2.87;72.26;96689.22;5073201;28;20031;-54
2023/12/23 01:00:44;;;;;;;33.58;21.63;;;;;;;2.96;71.93;96696.25;5073182;28;20115;-57
2023/12/23 01:03:09;;;;;;;33.60;21.38;;;;;;;2.88;72.08;96669.72;5072599;28;20482;-56
2023/12/23 01:05:35;;;;;;;30.90;17.00;;;;;;;3.02;71.15;96681.59;5074714;28;20443;-57
2023/12/23 01:08:00;;;;;;;29.13;19.42;;;;;;;3.03;71.16;96648.91;5089555;28;20054;-58
2023/12/23 01:10:26;;;;;;;29.13;19.38;;;;;;;3.00;71.40;96694.09;5092759;28;20043;-56
2023/12/23 01:12:53;;;;;;;31.13;15.13;;;;;;;3.11;70.59;96701.81;5093493;28;20086;-60
2023/12/23 01:15:18;;;;;;;28.70;18.73;;;;;;;3.04;70.62;96669.06;5093085;28;20028;-58
2023/12/23 01:17:44;;;;;;;27.17;17.25;;;;;;;2.92;71.50;96668.47;5093006;28;20115;-57
2023/12/23 01:20:11;;;;;;;29.83;19.10;;;;;;;2.91;71.22;96674.75;5079861;28;20033;-60
2023/12/23 01:22:37;;;;;;;28.85;18.50;;;;;;;2.92;71.15;96681.69;5071978;28;20029;-55
2023/12/23 01:25:03;;;;;;;29.20;18.45;;;;;;;3.01;71.56;96654.31;5072578;28;20105;-58
2023/12/23 01:27:29;;;;;;;31.88;17.85;;;;;;;3.00;71.01;96667.69;5085039;28;20063;-58
2023/12/23 01:29:55;;;;;;;27.13;17.33;;;;;;;2.90;71.59;96670.44;5092870;28;20052;-61
2023/12/23 01:32:21;;;;;;;27.80;17.95;;;;;;;2.84;71.74;96657.81;5092835;28;20036;-59
2023/12/23 01:34:47;;;;;;;28.48;18.13;;;;;;;2.85;71.06;96640.97;5079911;28;20040;-58
2023/12/23 01:37:13;;;;;;;32.42;20.33;;;;;;;2.81;71.56;96664.25;5071758;28;20133;-57
2023/12/23 01:39:39;;;;;;;30.52;18.45;;;;;;;2.98;71.07;96652.00;5071945;28;20490;-61
2023/12/23 01:42:05;;;;;;;34.22;19.48;;;;;;;2.82;71.09;96652.72;5073646;28;20462;-57
2023/12/23 01:44:30;;;;;;;30.10;18.75;;;;;;;2.79;71.85;96645.09;5088409;28;20039;-59
2023/12/23 01:46:58;;;;;;;28.20;18.35;;;;;;;2.80;72.34;96637.97;5079604;28;20158;-53
2023/12/23 01:49:25;;;;;;;29.15;19.33;;;;;;;2.81;72.43;96629.06;5080968;28;20070;-59
2023/12/23 01:51:54;;;;;;;26.85;17.50;;;;;;;2.89;72.03;96613.25;5092763;28;20124;-58
2023/12/23 01:54:21;;;;;;;28.48;18.05;;;;;;;2.95;71.50;96615.31;5092980;28;20032;-58
2023/12/23 01:56:48;;;;;;;28.65;18.80;;;;;;;2.87;71.60;96615.22;5074341;28;20028;-59
2023/12/23 01:59:15;;;;;;;25.88;16.67;;;;;;;2.97;71.80;96605.41;5084371;28;20112;-56
2023/12/23 02:01:42;;;;;;;28.35;18.00;;;;;;;2.95;71.35;96612.66;5084417;28;20032;-61
2023/12/23 02:04:08;;;;;;;30.23;20.23;;;;;;;2.84;71.72;96589.97;5082619;28;20475;-62
2023/12/23 02:06:34;;;;;;;29.58;18.67;;;;;;;2.88;72.19;96595.75;5091309;28;20036;-54
2023/12/23 02:09:02;;;;;;;30.25;19.50;;;;;;;2.51;72.50;96555.38;5086475;28;20068;-53
2023/12/23 02:11:33;;;;;;;29.98;18.92;;;;;;;2.80;72.62;96593.06;5072513;28;20028;-57
2023/12/23 02:14:06;;;;;;;29.05;17.20;;;;;;;2.79;72.90;96586.13;5070964;28;20032;-61
2023/12/23 02:16:34;;;;;;;27.05;16.75;;;;;;;2.44;72.40;96520.03;5072929;28;20090;-60
2023/12/23 02:18:59;;;;;;;29.92;18.80;;;;;;;2.89;72.13;96578.91;5092619;28;20028;-56
2023/12/23 02:21:25;;;;;;;26.23;16.63;;;;;;;2.94;72.00;96589.88;5092459;28;20453;-56
2023/12/23 02:23:50;;;;;;;24.95;15.77;;;;;;;2.83;72.35;96577.75;5091261;28;20035;-57
2023/12/23 02:26:19;;;;;;;27.15;17.25;;;;;;;2.82;73.15;96589.28;5085753;28;20025;-59
2023/12/23 02:28:51;;;;;;;27.83;16.13;;;;;;;2.53;73.24;96536.75;5072530;28;20067;-59
2023/12/23 02:31:19;;;;;;;22.40;14.30;;;;;;;2.87;72.89;96579.09;5072147;28;20037;-60
2023/12/23 02:33:47;;;;;;;24.48;16.23;;;;;;;2.91;72.49;96574.31;5086168;28;20363;-56
2023/12/23 02:36:12;;;;;;;27.33;16.83;;;;;;;2.63;72.85;96548.03;5089115;28;20040;-61
2023/12/23 02:38:38;;;;;;;29.70;18.45;;;;;;;2.75;73.01;96561.00;5071933;28;20024;-58
2023/12/23 02:41:04;;;;;;;25.95;16.35;;;;;;;2.75;73.53;96582.13;5054873;28;20060;-59
2023/12/23 02:43:29;;;;;;;24.52;15.23;;;;;;;2.76;73.06;96560.03;5071803;28;20372;-57
2023/12/23 02:45:55;;;;;;;22.40;14.77;;;;;;;2.75;73.93;96561.00;5071910;28;20072;-52
2023/12/23 02:48:20;;;;;;;20.17;12.95;;;;;;;2.79;73.78;96567.63;5085941;28;20043;-59
2023/12/23 02:50:46;;;;;;;21.45;13.38;;;;;;;2.72;73.59;96564.78;5091388;28;20061;-61
2023/12/23 02:53:11;;;;;;;17.70;11.57;;;;;;;2.75;73.68;96558.34;5091302;28;20036;-61
2023/12/23 02:55:37;;;;;;;17.55;12.35;;;;;;;2.67;73.35;96553.84;5092223;28;20039;-58
2023/12/23 02:58:03;;;;;;;21.38;12.63;;;;;;;2.64;73.94;96562.09;5092468;28;20040;-62
2023/12/23 03:00:28;;;;;;;16.60;11.13;;;;;;;2.65;73.88;96551.38;5092457;28;20497;-59
2023/12/23 03:02:54;;;;;;;20.05;12.35;;;;;;;2.65;73.52;96553.19;5078838;28;20135;-58
2023/12/23 03:05:19;;;;;;;21.05;12.70;;;;;;;2.57;74.11;96551.31;5070709;28;20036;-58
2023/12/23 03:07:47;;;;;;;16.75;10.88;;;;;;;2.57;73.85;96538.09;5071065;28;20363;-58
2023/12/23 03:10:13;;;;;;;18.50;11.75;;;;;;;2.29;73.99;96503.91;5072184;28;20025;-58
2023/12/23 03:12:38;;;;;;;18.95;11.13;;;;;;;2.55;74.07;96551.47;5071542;28;20447;-57
2023/12/23 03:15:04;;;;;;;20.45;11.57;;;;;;;2.42;73.90;96533.41;5074578;28;20104;-60
2023/12/23 03:17:30;;;;;;;19.35;12.32;;;;;;;2.54;74.84;96551.63;5095563;28;20038;-57
2023/12/23 03:19:56;;;;;;;20.92;12.13;;;;;;;2.55;74.37;96548.00;5091766;28;20020;-55
2023/12/23 03:22:22;;;;;;;18.40;10.82;;;;;;;2.56;74.35;96552.28;5095433;28;20040;-59
2023/12/23 03:24:47;;;;;;;16.48;10.75;;;;;;;2.62;74.87;96546.38;5077302;28;20378;-59
2023/12/23 03:27:13;;;;;;;16.27;10.10;;;;;;;2.66;74.29;96552.19;5096020;28;20023;-59
2023/12/23 03:29:39;;;;;;;17.50;10.90;;;;;;;2.64;74.37;96536.47;5092510;28;20044;-57
2023/12/23 03:32:05;;;;;;;13.73;8.73;;;;;;;2.71;74.75;96548.09;5083301;28;20461;-61
2023/12/23 03:34:30;;;;;;;15.02;10.05;;;;;;;2.56;74.95;96539.09;5093512;28;20401;-61
2023/12/23 03:36:57;;;;;;;16.30;9.27;;;;;;;2.67;75.17;96530.06;5073746;28;20048;-59
2023/12/23 03:39:22;;;;;;;18.83;9.70;;;;;;;2.71;74.61;96521.69;5074666;28;20098;-61
2023/12/23 03:41:48;;;;;;;14.30;8.77;;;;;;;2.67;74.77;96540.63;5075125;28;20032;-60
2023/12/23 03:44:13;;;;;;;15.60;9.07;;;;;;;2.70;75.62;96543.81;5086324;28;20048;-57
2023/12/23 03:46:39;;;;;;;10.88;7.78;;;;;;;2.52;74.57;96503.41;5094947;28;20077;-60
2023/12/23 03:49:04;;;;;;;10.13;7.38;;;;;;;2.85;74.78;96541.41;5086885;28;20029;-61
2023/12/23 03:51:30;;;;;;;12.20;7.40;;;;;;;2.83;74.53;96545.19;5074407;28;20040;-60
2023/12/23 03:53:55;;;;;;;12.50;7.20;;;;;;;2.83;75.45;96546.03;5075449;28;20056;-61
2023/12/23 03:56:21;;;;;;;10.55;7.00;;;;;;;2.84;74.55;96539.75;5074604;28;20113;-60
2023/12/23 03:58:46;;;;;;;9.70;6.15;;;;;;;2.96;74.18;96550.06;5073767;28;20078;-61
2023/12/23 04:01:15;;;;;;;8.50;6.40;;;;;;;2.97;74.67;96554.34;5074411;28;20032;-59
2023/12/23 04:03:41;;;;;;;9.25;6.63;;;;;;;2.98;74.24;96556.84;5074303;28;20024;-60
2023/12/23 04:06:06;;;;;;;8.10;6.55;;;;;;;3.01;74.67;96543.31;5075429;28;20031;-54
2023/12/23 04:08:32;;;;;;;7.72;5.90;;;;;;;3.11;73.92;96559.06;5090207;28;20032;-59
2023/12/23 04:10:58;;;;;;;9.65;7.22;;;;;;;3.01;74.23;96572.38;5077637;28;20028;-56
2023/12/23 04:13:24;;;;;;;7.68;5.78;;;;;;;2.96;74.19;96557.97;5075328;28;20043;-57
2023/12/23 04:15:49;;;;;;;8.93;6.88;;;;;;;3.03;74.20;96579.34;5093835;28;20024;-57
2023/12/23 04:18:15;;;;;;;8.25;6.68;;;;;;;3.01;74.61;96572.38;5093320;28;20348;-59
2023/12/23 04:20:40;;;;;;;8.52;6.80;;;;;;;3.06;74.45;96565.81;5094099;28;20111;-58
2023/12/23 04:23:06;;;;;;;10.50;7.82;;;;;;;3.07;74.51;96549.78;5094411;28;20499;-60
2023/12/23 04:25:31;;;;;;;9.70;6.82;;;;;;;3.10;73.76;96544.19;5092289;28;20040;-58
2023/12/23 04:27:57;;;;;;;9.93;7.15;;;;;;;3.05;74.40;96548.28;5093558;28;20447;-57
2023/12/23 04:30:23;;;;;;;10.52;7.50;;;;;;;3.03;74.62;96548.47;5089923;28;20105;-60
2023/12/23 04:32:48;;;;;;;10.40;7.88;;;;;;;3.06;74.75;96552.59;5074140;28;20086;-60
2023/12/23 04:35:14;;;;;;;10.18;7.68;;;;;;;3.12;74.70;96550.16;5073490;28;20020;-58
2023/12/23 04:37:41;;;;;;;10.73;8.05;;;;;;;3.18;74.27;96548.69;5073756;28;20182;-59
2023/12/23 04:40:08;;;;;;;9.80;7.43;;;;;;;3.21;73.98;96548.38;5087247;28;20040;-57
2023/12/23 04:42:33;;;;;;;13.68;8.15;;;;;;;3.26;73.86;96550.56;5093674;28;20463;-60
2023/12/23 04:44:59;;;;;;;11.45;7.97;;;;;;;3.11;73.27;96522.06;5093382;28;20035;-57
2023/12/23 04:47:24;;;;;;;12.13;8.13;;;;;;;3.32;73.51;96528.75;5093829;28;20032;-58
2023/12/23 04:49:50;;;;;;;13.35;8.10;;;;;;;3.08;73.47;96497.75;5089560;28;20027;-63
2023/12/23 04:52:15;;;;;;;11.40;8.27;;;;;;;3.20;73.75;96517.63;5073927;28;20035;-60
2023/12/23 04:54:41;;;;;;;11.63;8.68;;;;;;;3.17;74.45;96528.53;5086130;28;20039;-59
2023/12/23 04:57:06;;;;;;;12.13;9.00;;;;;;;3.16;74.22;96530.34;5093536;28;20043;-56
2023/12/23 04:59:32;;;;;;;13.05;9.35;;;;;;;2.93;74.24;96485.16;5093279;28;20035;-59
2023/12/23 05:01:57;;;;;;;12.73;8.98;;;;;;;3.23;74.39;96532.34;5093533;28;20350;-58
2023/12/23 05:04:23;;;;;;;14.02;9.38;;;;;;;3.22;74.10;96533.31;5093851;28;20074;-58
2023/12/23 05:06:48;;;;;;;12.98;9.32;;;;;;;3.25;74.42;96533.00;5093556;28;20052;-57
2023/12/23 05:09:14;;;;;;;14.35;9.32;;;;;;;3.30;74.55;96539.47;5083482;28;20125;-59
2023/12/23 05:11:40;;;;;;;14.00;9.55;;;;;;;3.37;73.86;96531.75;5072948;28;20029;-59
2023/12/23 05:14:05;;;;;;;16.02;10.23;;;;;;;3.41;74.62;96540.19;5072956;28;20786;-59
2023/12/23 05:16:31;;;;;;;14.13;10.13;;;;;;;3.41;74.30;96543.66;5073988;28;20028;-60
2023/12/23 05:18:56;;;;;;;13.95;9.73;;;;;;;3.45;74.01;96541.53;5088213;28;20036;-56
2023/12/23 05:21:22;;;;;;;16.08;10.68;;;;;;;3.48;73.75;96543.84;5092917;28;20028;-59
2023/12/23 05:23:48;;;;;;;13.85;10.43;;;;;;;3.50;73.96;96549.81;5091671;28;20161;-55
2023/12/23 05:26:19;;;;;;;14.73;10.35;;;;;;;3.51;73.62;96537.41;5092631;28;20380;-52
2023/12/23 05:28:45;;;;;;;14.80;10.35;;;;;;;3.52;73.32;96541.72;5081940;28;20039;-56
2023/12/23 05:31:11;;;;;;;17.33;11.73;;;;;;;3.53;73.18;96544.19;5072759;28;20040;-58
2023/12/23 05:33:36;;;;;;;15.00;10.65;;;;;;;3.55;73.61;96547.50;5072670;28;20115;-59
2023/12/23 05:36:02;;;;;;;16.92;11.68;;;;;;;3.50;73.08;96533.94;5071995;28;20064;-58
2023/12/23 05:38:27;;;;;;;19.67;11.65;;;;;;;3.52;73.20;96549.66;5080760;28;20110;-60
2023/12/23 05:40:53;;;;;;;18.90;11.77;;;;;;;3.51;72.96;96532.94;5078830;28;20465;-59
2023/12/23 05:43:18;;;;;;;18.23;11.70;;;;;;;3.54;73.24;96537.09;5072868;28;20031;-59
2023/12/23 05:45:44;;;;;;;18.55;12.02;;;;;;;3.60;73.01;96544.38;5072555;28;20446;-59
2023/12/23 05:48:09;;;;;;;21.67;13.50;;;;;;;3.59;73.46;96546.19;5072076;28;20034;-55
2023/12/23 05:50:36;;;;;;;20.50;13.48;;;;;;;3.54;72.76;96529.97;5083111;28;20106;-57
2023/12/23 05:53:01;;;;;;;19.45;12.95;;;;;;;3.61;73.19;96547.84;5084879;28;20024;-52
2023/12/23 05:55:27;;;;;;;23.88;13.98;;;;;;;3.58;73.22;96546.34;5072167;28;20419;-55
2023/12/23 05:57:53;;;;;;;24.02;14.63;;;;;;;3.56;73.04;96545.69;5072517;28;20035;-58
2023/12/23 06:00:20;;;;;;;23.42;15.15;;;;;;;3.68;72.90;96562.09;5072722;28;20036;-57
2023/12/23 06:02:46;;;;;;;23.85;14.45;;;;;;;3.57;73.30;96537.59;5073388;28;20406;-59
2023/12/23 06:05:11;;;;;;;26.27;15.50;;;;;;;3.70;72.80;96544.25;5072147;28;20032;-57
2023/12/23 06:07:37;;;;;;;25.10;16.33;;;;;;;3.71;72.19;96581.09;5076553;28;20020;-59
2023/12/23 06:10:05;;;;;;;24.25;15.48;;;;;;;3.69;72.25;96548.69;5092717;28;20044;-58
2023/12/23 06:12:31;;;;;;;25.10;15.90;;;;;;;3.62;73.15;96552.13;5092434;28;20058;-59
2023/12/23 06:14:57;;;;;;;27.00;17.05;;;;;;;3.71;73.05;96585.59;5092044;28;20398;-56
2023/12/23 06:17:23;;;;;;;25.13;16.90;;;;;;;3.60;72.79;96570.84;5085035;28;20028;-59
2023/12/23 06:19:49;;;;;;;27.30;17.15;;;;;;;3.62;73.08;96571.50;5074242;28;20520;-64
2023/12/23 06:22:15;;;;;;;30.33;17.63;;;;;;;3.34;73.10;96524.13;5087742;28;20029;-61
2023/12/23 06:24:40;;;;;;;27.40;17.27;;;;;;;3.74;72.68;96585.25;5072370;28;20085;-62
2023/12/23 06:27:05;;;;;;;26.83;16.25;;;;;;;3.64;72.70;96566.06;5077182;28;20020;-64
2023/12/23 06:29:32;;;;;;;29.80;17.92;;;;;;;3.71;72.64;96580.28;5091510;28;20131;-63
2023/12/23 06:31:59;;;;;;;27.45;17.00;;;;;;;3.65;72.99;96575.66;5092614;28;20028;-62
2023/12/23 06:34:25;;;;;;;26.45;17.17;;;;;;;3.71;73.44;96589.03;5092316;28;20032;-62
2023/12/23 06:36:51;;;;;;;27.33;17.23;;;;;;;3.78;73.19;96585.78;5082033;28;20333;-64
2023/12/23 06:39:16;;;;;;;27.80;16.88;;;;;;;3.75;72.71;96584.28;5072951;28;20365;-63
2023/12/23 06:41:42;;;;;;;27.83;17.38;;;;;;;3.77;73.17;96579.66;5088438;28;20050;-62
2023/12/23 06:44:07;;;;;;;25.33;16.95;;;;;;;3.84;73.14;96601.00;5091775;28;20040;-63
2023/12/23 06:46:33;;;;;;;24.50;15.90;;;;;;;3.88;72.97;96586.44;5091759;28;20032;-62
2023/12/23 06:48:58;;;;;;;28.48;17.65;;;;;;;3.82;72.65;96585.28;5091234;28;20032;-62
2023/12/23 06:51:24;;;;;;;28.15;16.90;;;;;;;3.80;72.67;96589.09;5086075;28;20025;-63
2023/12/23 06:53:49;;;;;;;27.05;17.20;;;;;;;3.82;72.37;96587.91;5075482;28;20043;-62
2023/12/23 06:56:15;;;;;;;24.83;16.30;;;;;;;3.88;72.02;96610.28;5074477;28;20089;-62
2023/12/23 06:58:40;;;;;;;25.65;16.40;;;;;;;3.81;72.13;96583.63;5076062;28;20340;-62
2023/12/23 07:01:06;;;;;;;26.23;16.85;;;;;;;3.85;71.69;96587.59;5091832;28;20043;-62
2023/12/23 07:03:32;;;;;;;27.23;17.52;;;;;;;3.79;72.32;96582.94;5095464;28;20088;-61
2023/12/23 07:05:57;;;;;;;32.25;16.70;;;;;;;3.82;71.80;96581.81;5087422;28;20020;-63
2023/12/23 07:08:23;;;;;;;25.27;16.58;;;;;;;3.81;72.02;96578.31;5084816;28;20036;-62
2023/12/23 07:10:50;;;;;;;24.15;16.17;;;;;;;3.93;72.04;96591.28;5095384;28;20060;-63
2023/12/23 07:13:15;;;;;;;26.05;16.13;;;;;;;3.92;71.70;96592.25;5095667;28;20351;-63
2023/12/23 07:15:41;;;;;;;25.60;17.10;;;;;;;3.87;71.84;96616.56;5089629;28;20038;-62
2023/12/23 07:18:07;;;;;;;26.65;16.98;;;;;;;3.80;71.69;96589.91;5095190;28;20029;-64
2023/12/23 07:20:33;;;;;;;26.23;16.65;;;;;;;3.92;71.42;96608.97;5082241;28;20082;-62
2023/12/23 07:22:59;;;;;;;26.67;16.55;;;;;;;3.93;71.98;96610.59;5094336;28;20100;-63
2023/12/23 07:25:24;;;;;;;25.77;17.20;;;;;;;3.92;72.00;96622.19;5089907;28;20116;-63
2023/12/23 07:27:50;;;;;;;24.02;16.55;;;;;;;3.93;71.12;96617.75;5075030;28;20078;-62
2023/12/23 07:30:16;;;;;;;23.88;15.25;;;;;;;3.97;71.17;96627.81;5074336;28;20044;-62
2023/12/23 07:32:41;;;;;;;23.58;15.32;;;;;;;3.98;71.06;96616.28;5075573;28;20032;-62
2023/12/23 07:35:07;;;;;;;20.17;13.68;;;;;;;3.84;71.15;96601.81;5089711;28;20071;-62
2023/12/23 07:37:33;;;;;;;19.95;13.00;;;;;;;4.05;69.61;96631.50;5093617;28;20056;-63
2023/12/23 07:39:58;;;;;;;18.50;13.38;;;;;;;4.12;69.81;96641.28;5077127;28;20497;-63
2023/12/23 07:42:24;;;;;;;18.88;12.98;;;;;;;4.13;69.75;96635.00;5074574;28;20415;-64
2023/12/23 07:44:49;;;;;;;19.33;13.02;;;;;;;4.10;69.81;96645.06;5073885;28;20024;-63
2023/12/23 07:47:15;;;;;;;18.00;13.07;;;;;;;3.92;69.48;96610.78;5074282;28;20059;-62
2023/12/23 07:49:40;;;;;;;16.42;12.20;;;;;;;4.10;68.69;96643.28;5076254;28;20025;-63
2023/12/23 07:52:07;;;;;;;15.90;10.48;;;;;;;4.14;69.06;96665.78;5090778;28;20169;-62
2023/12/23 07:54:33;;;;;;;17.63;12.35;;;;;;;4.12;69.08;96662.47;5094838;28;20024;-63
2023/12/23 07:56:59;;;;;;;18.42;12.88;;;;;;;4.10;68.87;96655.66;5092812;28;20027;-62
2023/12/23 07:59:24;;;;;;;18.60;13.05;;;;;;;4.08;69.27;96655.81;5076355;28;20032;-63
2023/12/23 08:01:50;;;;;;;22.40;13.27;;;;;;;4.09;69.43;96659.31;5078823;28;20808;-62
2023/12/23 08:04:15;;;;;;;15.70;11.10;;;;;;;4.14;69.16;96649.91;5094740;28;20063;-63
2023/12/23 08:06:41;;;;;;;16.52;11.57;;;;;;;4.17;68.57;96664.63;5092384;28;20020;-64
2023/12/23 08:09:08;;;;;;;13.75;10.43;;;;;;;4.14;68.79;96664.94;5074071;28;20037;-65
2023/12/23 08:11:34;;;;;;;16.25;10.88;;;;;;;4.07;68.55;96643.56;5081112;28;20089;-63
2023/12/23 08:14:02;;;;;;;17.48;11.57;;;;;;;4.15;68.85;96662.16;5095235;28;20056;-64
2023/12/23 08:16:28;;;;;;;18.23;12.57;;;;;;;4.08;68.77;96639.94;5093509;28;20059;-63
2023/12/23 08:18:54;;;;;;;15.85;11.82;;;;;;;4.18;68.42;96666.28;5076371;28;20024;-65
2023/12/23 08:21:20;;;;;;;17.92;11.57;;;;;;;4.12;68.15;96657.19;5074018;28;20442;-62
2023/12/23 08:23:45;;;;;;;14.18;10.25;;;;;;;4.28;67.95;96663.47;5074124;28;20119;-64
2023/12/23 08:26:11;;;;;;;16.92;10.98;;;;;;;4.20;68.07;96658.19;5075222;28;20063;-65
2023/12/23 08:28:36;;;;;;;15.02;11.38;;;;;;;4.30;68.04;96685.34;5073791;28;20439;-65
2023/12/23 08:31:02;;;;;;;14.38;10.32;;;;;;;4.31;67.85;96681.69;5073762;28;20117;-62
2023/12/23 08:33:28;;;;;;;14.13;9.95;;;;;;;4.08;67.81;96644.41;5074117;28;20355;-62
2023/12/23 08:35:56;;;;;;;17.55;10.68;;;;;;;4.30;67.66;96677.38;5091857;28;20088;-63
2023/12/23 08:38:21;;;;;;;14.77;10.35;;;;;;;4.30;67.24;96677.38;5100640;28;20089;-58
2023/12/23 08:40:47;;;;;;;13.90;10.10;;;;;;;4.29;67.82;96678.38;5092089;28;20032;-61
2023/12/23 08:43:12;;;;;;;13.13;9.43;;;;;;;4.23;67.35;96650.75;5093842;28;20036;-59
2023/12/23 08:45:38;;;;;;;9.35;7.60;;;;;;;4.33;66.74;96666.47;5076896;28;20039;-62
2023/12/23 08:48:04;;;;;;;11.88;8.82;;;;;;;4.29;66.24;96667.78;5074630;28;20032;-65
2023/12/23 08:50:30;;;;;;;10.60;8.32;;;;;;;4.25;66.77;96656.72;5062882;28;20158;-60
2023/12/23 08:52:55;;;;;;;11.85;9.32;;;;;;;4.26;66.98;96653.06;5089423;28;20035;-58
2023/12/23 08:55:21;;;;;;;12.80;9.30;;;;;;;4.28;66.86;96666.13;5093587;28;20114;-59
2023/12/23 08:57:46;;;;;;;13.07;9.05;;;;;;;4.27;66.18;96673.25;5074858;28;20036;-59
2023/12/23 09:00:13;;;;;;;11.05;7.90;;;;;;;4.16;66.42;96665.59;5092846;28;20062;-59
2023/12/23 09:02:38;;;;;;;10.93;8.73;;;;;;;4.30;66.21;96680.03;5092517;28;20032;-62
2023/12/23 09:05:04;;;;;;;10.85;8.30;;;;;;;4.22;66.47;96680.03;5093074;28;20046;-60
2023/12/23 09:07:30;;;;;;;11.13;8.98;;;;;;;4.16;67.02;96689.44;5091500;28;20031;-61
2023/12/23 09:09:55;;;;;;;12.40;9.13;;;;;;;4.14;66.88;96686.13;5076851;28;20028;-59
2023/12/23 09:12:21;;;;;;;10.55;8.27;;;;;;;4.15;67.00;96683.34;5078394;28;20477;-58
2023/12/23 09:14:49;;;;;;;11.90;9.30;;;;;;;3.91;66.54;96640.91;5071843;28;20534;-59
2023/12/23 09:17:15;;;;;;;11.13;8.65;;;;;;;4.07;66.62;96685.94;5072310;28;20037;-57
2023/12/23 09:19:41;;;;;;;9.80;7.90;;;;;;;4.12;66.64;96688.94;5072429;28;20032;-58
2023/12/23 09:22:07;;;;;;;10.95;8.07;;;;;;;4.11;66.11;96695.22;5072946;28;20044;-58
2023/12/23 09:24:34;;;;;;;9.63;7.50;;;;;;;4.05;65.65;96687.09;5072558;28;20075;-55
2023/12/23 09:27:00;;;;;;;10.35;7.78;;;;;;;4.09;66.00;96704.31;5072886;28;20067;-62
2023/12/23 09:29:26;;;;;;;8.65;6.90;;;;;;;3.84;65.68;96665.34;5077200;28;20076;-64
2023/12/23 09:31:51;;;;;;;8.00;6.53;;;;;;;3.97;65.23;96685.25;5078817;28;20039;-59
2023/12/23 09:34:17;;;;;;;6.65;5.95;;;;;;;4.02;65.15;96704.97;5086581;28;20032;-61
2023/12/23 09:36:42;;;;;;;7.55;6.05;;;;;;;4.07;64.62;96704.47;5090985;28;20115;-56
2023/12/23 09:39:08;;;;;;;9.05;6.75;;;;;;;3.74;65.19;96638.19;5070877;28;20378;-59
2023/12/23 09:41:34;;;;;;;7.60;6.80;;;;;;;4.14;64.92;96700.22;5071075;28;20047;-60
2023/12/23 09:44:00;;;;;;;9.75;7.28;;;;;;;4.29;64.80;96699.56;5071503;28;20028;-58
2023/12/23 09:46:26;;;;;;;9.15;7.13;;;;;;;4.45;64.06;96698.78;5070543;28;20087;-61
2023/12/23 09:48:52;;;;;;;9.82;7.03;;;;;;;4.33;63.41;96647.94;5084692;28;20066;-60
2023/12/23 09:51:17;;;;;;;9.70;6.90;;;;;;;4.63;63.14;96693.38;5084158;28;20056;-65
2023/12/23 09:53:47;;;;;;;8.40;6.25;;;;;;;4.56;62.76;96681.75;5092469;28;20038;-66
2023/12/23 09:56:13;;;;;;;8.10;6.05;;;;;;;4.58;62.47;96693.00;5084110;28;20028;-67
2023/12/23 09:58:42;;;;;;;7.90;6.32;;;;;;;4.52;62.86;96705.09;5078524;28;20028;-62
2023/12/23 10:01:09;;;;;;;7.80;6.22;;;;;;;4.52;63.01;96705.09;5089457;28;20032;-65
2023/12/23 10:03:40;;;;;;;6.53;5.65;;;;;;;4.45;62.77;96696.13;5090646;28;20636;-64
2023/12/23 10:06:07;;;;;;;6.68;5.32;;;;;;;4.42;62.69;96702.59;5089279;28;20424;-64
2023/12/23 10:08:32;;;;;;;8.00;5.82;;;;;;;4.42;62.97;96710.53;5090945;28;20028;-67
2023/12/23 10:10:58;;;;;;;6.78;5.90;;;;;;;4.41;63.23;96708.03;5090894;28;20085;-66
2023/12/23 10:13:24;;;;;;;8.57;6.22;;;;;;;4.11;62.47;96666.09;5081167;28;20371;-65
2023/12/23 10:15:49;;;;;;;6.93;5.20;;;;;;;4.36;62.24;96705.06;5071076;28;20427;-69
2023/12/23 10:18:15;;;;;;;6.82;5.40;;;;;;;4.37;62.06;96702.25;5091513;28;20044;-66
2023/12/23 10:20:41;;;;;;;6.68;4.82;;;;;;;4.35;61.28;96700.75;5089927;28;20028;-66
2023/12/23 10:23:08;;;;;;;6.07;4.82;;;;;;;4.30;61.64;96701.22;5083711;28;20469;-65
2023/12/23 10:25:34;;;;;;;7.90;6.05;;;;;;;4.24;62.14;96692.13;5074226;28;20064;-65
2023/12/23 10:28:05;;;;;;;7.40;5.72;;;;;;;4.32;62.57;96707.19;5077146;28;20111;-67
2023/12/23 10:30:34;;;;;;;7.25;5.53;;;;;;;4.38;61.71;96703.91;5094663;28;20075;-66
2023/12/23 10:33:05;;;;;;;8.45;5.47;;;;;;;4.46;61.84;96721.63;5075773;28;20048;-66
2023/12/23 10:35:36;;;;;;;7.47;5.68;;;;;;;4.48;61.63;96716.19;5075395;28;20060;-66
2023/12/23 10:38:06;;;;;;;5.53;4.68;;;;;;;4.49;61.03;96716.03;5076341;28;20409;-66
2023/12/23 10:40:32;;;;;;;7.35;5.18;;;;;;;4.48;61.27;96708.22;5076604;28;20024;-66
2023/12/23 10:43:00;;;;;;;6.55;4.95;;;;;;;4.44;60.64;96697.97;5075122;28;20070;-66
2023/12/23 10:45:26;;;;;;;6.05;4.70;;;;;;;4.45;60.89;96717.31;5077061;28;20115;-66
2023/12/23 10:47:52;;;;;;;6.38;5.05;;;;;;;4.43;60.76;96711.34;5093281;28;20111;-65
2023/12/23 10:50:18;;;;;;;8.65;5.03;;;;;;;4.38;60.51;96719.81;5076166;28;20040;-66
2023/12/23 10:52:44;;;;;;;6.90;4.82;;;;;;;4.27;60.96;96706.84;5082378;28;20371;-66
2023/12/23 10:55:12;;;;;;;7.25;5.28;;;;;;;4.31;60.68;96705.53;5095590;28;20032;-66
2023/12/23 10:57:40;;;;;;;6.68;4.38;;;;;;;4.17;60.50;96677.84;5095027;28;20354;-63
2023/12/23 11:00:09;;;;;;;5.25;4.50;;;;;;;4.31;59.65;96701.06;5089246;28;20024;-63
2023/12/23 11:02:37;;;;;;;5.40;4.85;;;;;;;4.29;60.45;96718.94;5075579;28;20029;-65
2023/12/23 11:05:07;;;;;;;7.30;5.35;;;;;;;4.32;60.41;96717.78;5076029;28;20048;-66
2023/12/23 11:07:42;;;;;;;7.05;4.90;;;;;;;4.33;60.56;96714.16;5095734;28;20043;-65
2023/12/23 11:10:09;;;;;;;6.85;5.32;;;;;;;4.33;60.62;96716.78;5096093;28;20092;-68
2023/12/23 11:12:36;;;;;;;5.00;4.22;;;;;;;4.08;60.82;96678.84;5094809;28;20031;-66
2023/12/23 11:15:02;;;;;;;3.88;3.25;;;;;;;4.28;59.29;96725.25;5088154;28;20810;-67
2023/12/23 11:17:31;;;;;;;4.63;3.95;;;;;;;4.28;59.81;96727.88;5113989;28;20450;-65
2023/12/23 11:20:03;;;;;;;6.32;4.03;;;;;;;4.25;60.18;96732.66;5115494;28;20043;-64
2023/12/23 11:22:37;;;;;;;7.57;4.97;;;;;;;4.20;60.33;96745.56;5115935;28;20028;-63
2023/12/23 11:25:03;;;;;;;4.88;4.38;;;;;;;3.94;60.13;96706.75;5102282;28;20028;-65